• Join FlightAware (Why Join?)
  • Login
  • US Flag 
10:20AM EDT


 

Airport Tracker/Info


-or-


 

Live Flight TrackerFlight Track Log ✈ N333HC ✈ 03-Dec-2013 ✈ KGAD - KMDD

Flight Track Log - Related Links

Times and Time Zones

All times are in EST time to prevent confusion due to time zone crossing. See the N333HC flight status page for this flight to view local times or setup timezone preferences in your user account.

Time Position Orientation Groundspeed Altitude Reporting Facility
EST Latitude Longitude Course Direction KTS MPH feet Rate Location/Type
09:00AM 33.9511 -86.1750 265° West 166 191 3,700  Level Atlanta Center
09:01AM 33.9486 -86.1950 261° West 159 183 4,600 1,980 Climbing Atlanta Center
09:02AM 33.9481 -86.2275 269° West 166 191 6,100 1,680 Climbing Atlanta Center
09:03AM 33.9450 -86.2775 266° West 166 191 7,700 1,680 Climbing Atlanta Center
09:04AM 33.9442 -86.3325 269° West 166 191 9,500 1,800 Climbing Atlanta Center
09:05AM 33.9386 -86.3925 264° West 171 197 11,300 1,680 Climbing Atlanta Center
09:06AM 33.9440 -86.5943 265° West  Level Estimated
09:06AM 33.9333 -86.4500 264° West 171 197 12,900  Level Atlanta Center
09:07AM 33.9178 -86.4994 249° West 177 204 14,600 1,560 Climbing Atlanta Center
09:08AM 33.8614 -86.5103 189° South 162 186 16,100 1,500 Climbing Atlanta Center
09:09AM 33.8253 -86.5369 212° Southwest 169 194 17,600 1,620 Climbing Atlanta Center
09:10AM 33.8219 -86.5942 266° West 150 173 19,400 1,440 Climbing Atlanta Center
09:11AM 33.8208 -86.6492 269° West 156 180 20,500 1,140 Climbing Atlanta Center
09:12AM 33.8175 -86.7067 266° West 168 193 21,700 1,140 Climbing Atlanta Center
09:13AM 33.8142 -86.7642 266° West 168 193 22,800 960 Climbing Atlanta Center
09:14AM 33.8108 -86.8214 266° West 174 200 23,700 600 Climbing Atlanta Center
09:15AM 33.8072 -86.8864 266° West 185 213 24,000 60 Climbing Atlanta Center
09:16AM 33.8036 -86.9586 267° West 198 228 23,900 -60 Descending Atlanta Center
09:17AM 33.8017 -87.0311 268° West 211 243 23,900  Level Atlanta Center
09:18AM 33.7947 -87.1528 266° West 227 261 24,000  Climbing Memphis Center
09:19AM 33.7903 -87.2433 267° West 227 261 24,000 -60 Level Memphis Center
09:20AM 33.7850 -87.3200 265° West 228 262 23,900 -60 Descending Memphis Center
09:21AM 33.7808 -87.3972 266° West 231 266 23,900  Level Memphis Center
09:22AM 33.7758 -87.4722 265° West 228 262 23,900  Level Memphis Center
09:23AM 33.7717 -87.5483 266° West 228 262 24,000  Climbing Memphis Center
09:24AM 33.7664 -87.6244 265° West 228 262 24,000 -60 Level Memphis Center
09:26AM 33.7622 -87.7156 267° West 227 261 23,900  Descending Memphis Center
09:27AM 33.7572 -87.7917 266° West 228 262 24,000  Climbing Memphis Center
09:28AM 33.7522 -87.8683 266° West 229 264 23,900 -60 Descending Memphis Center
09:29AM 33.7486 -87.9453 267° West 231 266 23,900  Level Memphis Center
09:30AM 33.7431 -88.0225 265° West 231 266 24,000  Climbing Memphis Center
09:31AM 33.7375 -88.0989 265° West 231 266 23,900 -60 Descending Memphis Center
09:32AM 33.7325 -88.1756 266° West 231 266 23,900  Level Memphis Center
09:33AM 33.7275 -88.2683 266° West 232 267 24,000  Climbing Memphis Center
09:34AM 33.7222 -88.3453 265° West 231 266 23,900  Descending Memphis Center
09:35AM 33.7164 -88.4225 265° West 232 267 24,000  Climbing Memphis Center
09:36AM 33.7119 -88.5008 266° West 234 269 24,000 -60 Level Memphis Center
09:37AM 33.7072 -88.5778 266° West 233 268 23,900 -60 Descending Memphis Center
09:38AM 33.7006 -88.6550 264° West 232 267 23,900  Level Memphis Center
09:39AM 33.6947 -88.7475 266° West 232 267 24,000  Climbing Memphis Center
09:40AM 33.6900 -88.8244 266° West 232 267 24,000 -60 Level Memphis Center
09:41AM 33.6842 -88.9019 265° West 230 265 23,900 -60 Descending Memphis Center
09:42AM 33.6792 -88.9781 266° West 229 264 23,900  Level Memphis Center
09:43AM 33.6739 -89.0547 265° West 231 266 23,900  Level Memphis Center
09:44AM 33.6681 -89.1308 265° West 231 266 23,900  Level Memphis Center
09:45AM 33.6611 -89.2217 265° West 231 266 23,900  Level Memphis Center
09:46AM 33.6561 -89.2978 266° West 232 267 24,000  Climbing Memphis Center
09:47AM 33.6517 -89.3739 266° West 230 265 24,000 -60 Level Memphis Center
09:48AM 33.6447 -89.4500 264° West 231 266 23,900 -60 Descending Memphis Center
09:49AM 33.6397 -89.5264 266° West 233 268 23,900  Level Memphis Center
09:50AM 33.6319 -89.6172 264° West 231 266 23,900  Level Memphis Center
09:51AM 33.6264 -89.6939 265° West 232 267 23,900  Level Memphis Center
09:52AM 33.6211 -89.7700 265° West 232 267 23,900  Level Memphis Center
09:53AM 33.6147 -89.8472 264° West 233 268 23,900  Level Memphis Center
09:54AM 33.6089 -89.9233 265° West 233 268 24,000  Climbing Memphis Center
09:55AM 33.6011 -90.0144 264° West 232 267 23,900 -60 Descending Memphis Center
09:56AM 33.5953 -90.0908 265° West 232 267 23,900  Level Memphis Center
09:58AM 33.5892 -90.1675 265° West 233 268 23,900  Level Memphis Center
09:59AM 33.5836 -90.2439 265° West 233 268 23,900  Level Memphis Center
10:00AM 33.5772 -90.3217 264° West 235 270 24,000  Climbing Memphis Center
10:01AM 33.5697 -90.4142 264° West 235 270 23,900 -60 Descending Memphis Center
10:02AM 33.5633 -90.4900 264° West 233 268 23,900  Level Memphis Center
10:03AM 33.5536 -90.5667 261° West 233 268 23,900  Level Memphis Center
10:04AM 33.5439 -90.6406 261° West 230 265 24,000  Climbing Memphis Center
10:05AM 33.5342 -90.7144 261° West 227 261 24,000 -60 Level Memphis Center
10:06AM 33.5211 -90.8047 260° West 231 266 23,900 -60 Descending Memphis Center
10:07AM 33.5111 -90.8786 261° West 228 262 23,900  Level Memphis Center
10:08AM 33.4997 -90.9533 260° West 229 264 24,000  Climbing Memphis Center
10:09AM 33.4956 -91.0278 266° West 227 261 24,000  Level Memphis Center
10:10AM 33.4892 -91.1028 264° West 228 262 24,000 -60 Level Memphis Center
10:11AM 33.4808 -91.1908 264° West 225 259 23,900 -60 Descending Memphis Center
10:12AM 33.4736 -91.2650 263° West 225 259 23,900  Level Memphis Center
10:13AM 33.4678 -91.3383 265° West 225 259 23,900  Level Memphis Center
10:14AM 33.4617 -91.4114 264° West 224 258 23,900 -120 Level Memphis Center
10:15AM 33.4536 -91.4856 263° West 225 259 23,700 -780 Descending Memphis Center
10:16AM 33.4469 -91.5811 265° West 238 274 22,400 -1,140 Descending Memphis Center
10:17AM 33.4403 -91.6653 265° West 251 289 21,400 -960 Descending Memphis Center
10:18AM 33.4319 -91.7481 263° West 253 291 20,400 -720 Descending Memphis Center
10:19AM 33.4228 -91.8333 263° West 256 295 19,900 -300 Descending Memphis Center
10:20AM 33.4156 -91.9156 264° West 254 292 19,900  Level Memphis Center
10:21AM 33.4075 -92.0097 264° West 245 282 19,900  Level Memphis Center
10:22AM 33.4000 -92.0853 263° West 235 270 19,900  Level Memphis Center
10:23AM 33.3925 -92.1642 264° West 238 274 19,900  Level Memphis Center
10:24AM 33.3861 -92.2436 265° West 240 276 19,900  Level Memphis Center
10:25AM 33.3767 -92.3233 262° West 244 281 19,900  Level Memphis Center
10:26AM 33.3706 -92.3981 264° West 239 275 19,900  Level Fort Worth Center
10:27AM 33.3625 -92.4783 263° West 243 280 19,900  Level Fort Worth Center
10:28AM 33.3539 -92.5719 264° West 239 275 19,900  Level Fort Worth Center
10:29AM 33.3458 -92.6497 263° West 238 274 19,900  Level Fort Worth Center
10:30AM 33.3392 -92.7272 264° West 236 272 19,900  Level Fort Worth Center
10:32AM 33.3308 -92.8033 263° West 235 270 19,900  Level Fort Worth Center
10:33AM 33.3225 -92.8819 263° West 237 273 19,900  Level Fort Worth Center
10:34AM 33.3147 -92.9608 263° West 238 274 19,900  Level Fort Worth Center
10:35AM 33.3044 -93.0567 263° West 240 276 19,900  Level Fort Worth Center
10:36AM 33.2972 -93.1336 264° West 238 274 19,900  Level Fort Worth Center
10:37AM 33.2883 -93.2114 262° West 237 273 19,900  Level Fort Worth Center
10:38AM 33.2811 -93.2894 264° West 237 273 19,900  Level Fort Worth Center
10:39AM 33.2728 -93.3675 263° West 237 273 19,900  Level Fort Worth Center
10:40AM 33.2628 -93.4625 263° West 239 275 19,900  Level Fort Worth Center
10:41AM 33.2539 -93.5419 262° West 241 277 19,900  Level Fort Worth Center
10:42AM 33.2461 -93.6208 263° West 240 276 19,900  Level Fort Worth Center
10:43AM 33.2361 -93.7042 262° West 233 268 19,900  Level Fort Worth Center
10:44AM 33.2283 -93.7831 263° West 239 275 19,900  Level Fort Worth Center
10:45AM 33.2183 -93.8681 262° West 241 277 19,900  Level Fort Worth Center
10:46AM 33.2092 -93.9472 262° West 241 277 19,900  Level Fort Worth Center
10:47AM 33.2008 -94.0314 263° West 238 274 19,900  Level Fort Worth Center
10:48AM 33.1917 -94.1114 262° West 243 280 19,900  Level Fort Worth Center
10:49AM 33.1828 -94.1972 263° West 243 280 19,900  Level Fort Worth Center
10:50AM 33.1736 -94.2772 262° West 244 281 19,900  Level Fort Worth Center
10:51AM 33.1658 -94.3514 263° West 241 277 19,900  Level Fort Worth Center
10:52AM 33.1561 -94.4311 262° West 244 281 19,900  Level Fort Worth Center
10:53AM 33.1458 -94.5256 263° West 239 275 19,900  Level Fort Worth Center
10:54AM 33.1369 -94.6033 262° West 238 274 19,900  Level Fort Worth Center
10:55AM 33.1275 -94.6814 262° West 239 275 19,900  Level Fort Worth Center
10:56AM 33.1178 -94.7594 262° West 237 273 19,900  Level Fort Worth Center
10:57AM 33.1100 -94.8372 263° West 239 275 19,900  Level Fort Worth Center
10:58AM 33.1003 -94.9144 261° West 235 270 19,900  Level Fort Worth Center
10:59AM 33.0897 -95.0089 262° West 239 275 19,900  Level Fort Worth Center
11:01AM 33.0803 -95.0867 262° West 238 274 19,900  Level Fort Worth Center
11:02AM 33.0706 -95.1667 262° West 243 280 19,900  Level Fort Worth Center
11:03AM 33.0611 -95.2472 262° West 245 282 19,900  Level Fort Worth Center
11:04AM 33.0517 -95.3269 262° West 245 282 19,900  Level Fort Worth Center
11:05AM 33.0408 -95.4083 261° West 247 284 19,900  Level Fort Worth Center
11:06AM 33.0294 -95.5069 262° West 251 289 19,900  Level Fort Worth Center
11:07AM 33.0189 -95.5897 261° West 251 289 19,900  Level Fort Worth Center
11:08AM 33.0086 -95.6706 261° West 248 285 19,900  Level Fort Worth Center
11:09AM 32.9992 -95.7525 262° West 250 288 19,900  Level Fort Worth Center
11:10AM 32.9892 -95.8339 262° West 250 288 19,900  Level Fort Worth Center
11:11AM 32.9797 -95.9164 262° West 252 290 19,900  Level Fort Worth Center
11:12AM 32.9669 -96.0142 261° West 250 288 19,900  Level Fort Worth Center
11:13AM 32.9564 -96.0967 261° West 251 289 19,900  Level Fort Worth Center
11:14AM 32.9472 -96.1778 262° West 249 287 19,900  Level Fort Worth Center
11:15AM 32.9347 -96.2597 260° West 250 288 19,900  Level Fort Worth Center
11:16AM 32.9233 -96.3414 261° West 251 289 19,900  Level Fort Worth Center
11:17AM 32.9128 -96.4225 261° West 250 288 19,900  Level Fort Worth Center
11:18AM 32.8994 -96.5194 261° West 248 285 19,900  Level Fort Worth Center
11:19AM 32.8897 -96.6017 262° West 251 289 19,900  Level Fort Worth Center
11:20AM 32.8792 -96.6842 261° West 252 290 19,900  Level Fort Worth Center
11:21AM 32.8678 -96.7667 261° West 252 290 19,900  Level Fort Worth Center
11:22AM 32.8564 -96.8494 261° West 254 292 19,900  Level Fort Worth Center
11:23AM 32.8442 -96.9450 261° West 258 297 19,900  Level Fort Worth Center
11:24AM 32.8319 -97.0358 261° West 257 296 19,900  Level Fort Worth Center
11:25AM 32.8208 -97.1186 261° West 255 293 19,900  Level Fort Worth Center
11:26AM 32.8075 -97.2078 260° West 255 293 19,900  Level Fort Worth Center
11:27AM 32.7967 -97.2917 261° West 256 295 19,900  Level Fort Worth Center
11:28AM 32.7844 -97.3822 261° West 257 296 19,900  Level Fort Worth Center
11:29AM 32.7733 -97.4669 261° West 259 298 19,900  Level Fort Worth Center
11:31AM 32.7617 -97.5506 261° West 256 295 19,900  Level Fort Worth Center
11:32AM 32.7486 -97.6411 260° West 257 296 19,900  Level Fort Worth Center
11:33AM 32.7367 -97.7256 260° West 257 296 19,900  Level Fort Worth Center
11:34AM 32.7247 -97.8100 260° West 259 298 19,900  Level Fort Worth Center
11:35AM 32.7119 -97.9008 261° West 260 299 19,900  Level Fort Worth Center
11:36AM 32.7000 -97.9853 260° West 259 298 19,900  Level Fort Worth Center
11:37AM 32.6869 -98.0761 260° West 258 297 19,900  Level Fort Worth Center
11:38AM 32.6753 -98.1603 261° West 258 297 19,900  Level Fort Worth Center
11:39AM 32.6631 -98.2444 260° West 258 297 19,900  Level Fort Worth Center
11:40AM 32.6500 -98.3364 260° West 261 300 19,900  Level Fort Worth Center
11:41AM 32.6372 -98.4211 260° West 262 302 19,900  Level Fort Worth Center
11:42AM 32.6247 -98.5006 259° West 260 299 19,900  Level Fort Worth Center
11:43AM 32.6119 -98.5847 260° West 262 302 19,900  Level Fort Worth Center
11:44AM 32.5964 -98.6875 260° West 263 303 19,900  Level Fort Worth Center
11:45AM 32.5847 -98.7719 261° West 261 300 19,900  Level Fort Worth Center
11:46AM 32.5717 -98.8572 260° West 262 302 19,900  Level Fort Worth Center
11:47AM 32.5594 -98.9414 260° West 260 299 19,900  Level Fort Worth Center
11:48AM 32.5450 -99.0258 259° West 261 300 19,900  Level Fort Worth Center
11:49AM 32.5333 -99.1075 260° West 254 292 19,900  Level Fort Worth Center
11:50AM 32.5183 -99.2058 260° West 252 290 19,900  Level Fort Worth Center
11:51AM 32.5050 -99.2883 259° West 254 292 19,900  Level Fort Worth Center
11:52AM 32.4928 -99.3697 260° West 251 289 19,900  Level Fort Worth Center
11:53AM 32.4797 -99.4514 259° West 251 289 19,900  Level Fort Worth Center
11:54AM 32.4678 -99.5306 260° West 245 282 19,900  Level Fort Worth Center
11:55AM 32.4550 -99.6097 259° West 243 280 19,900  Level Fort Worth Center
11:56AM 32.4428 -99.6881 260° West 242 278 19,900  Level Fort Worth Center
11:57AM 32.4275 -99.7819 259° West 241 277 19,900  Level Fort Worth Center
11:58AM 32.4150 -99.8614 259° West 244 281 19,900  Level Fort Worth Center
12:00PM 32.4019 -99.9417 259° West 246 283 19,900  Level Fort Worth Center
12:01PM 32.3886 -100.0217 259° West 247 284 19,900  Level Fort Worth Center
12:02PM 32.3764 -100.1028 260° West 249 287 19,900  Level Fort Worth Center
12:03PM 32.3633 -100.1844 259° West 252 290 19,900  Level Fort Worth Center
12:04PM 32.3500 -100.2656 259° West 252 290 19,900  Level Fort Worth Center
12:05PM 32.3375 -100.3450 259° West 247 284 19,900  Level Fort Worth Center
12:06PM 32.3222 -100.4397 259° West 246 283 19,900  Level Fort Worth Center
12:07PM 32.3092 -100.5192 259° West 246 283 19,900  Level Fort Worth Center
12:08PM 32.2953 -100.5981 258° West 246 283 19,900  Level Fort Worth Center
12:09PM 32.2814 -100.6792 259° West 250 288 19,900  Level Fort Worth Center
12:10PM 32.2678 -100.7581 258° West 247 284 19,900  Level Fort Worth Center
12:11PM 32.2542 -100.8372 259° West 247 284 19,900 -180 Level Fort Worth Center
12:12PM 32.2383 -100.9328 259° West 246 283 19,600 -780 Descending Fort Worth Center
12:13PM 32.2258 -101.0167 260° West 255 293 18,400 -1,260 Descending Fort Worth Center
12:14PM 32.2156 -101.0997 262° West 255 293 17,100 -1,260 Descending Fort Worth Center
12:15PM 32.2025 -101.1783 259° West 246 283 15,900 -1,200 Descending Fort Worth Center
12:16PM 32.1917 -101.2561 261° West 240 276 14,700 -1,260 Descending Fort Worth Center
12:17PM 32.1775 -101.3481 260° West 241 277 13,300 -1,260 Descending Fort Worth Center
12:18PM 32.1644 -101.4261 259° West 241 277 12,100 -1,200 Descending Fort Worth Center
12:19PM 32.1547 -101.5061 262° West 245 282 10,900 -1,200 Descending Fort Worth Center
12:20PM 32.1419 -101.5825 259° West 241 277 9,700 -1,200 Descending Fort Worth Center
12:21PM 32.1286 -101.6606 259° West 242 278 8,500 -1,320 Descending Fort Worth Center
12:22PM 32.1156 -101.7367 259° West 239 275 7,000 -1,680 Descending Fort Worth Center
12:23PM 32.1003 -101.8281 259° West 237 273 5,100 -1,260 Descending Fort Worth Center
12:24PM 32.0875 -101.8956 257° West 221 254 4,500 -360 Descending Fort Worth Center
12:25PM 32.0722 -101.9572 254° West 205 236 4,400 -240 Descending Fort Worth Center
12:26PM 32.0594 -102.0153 255° West 190 219 4,100 -540 Descending Fort Worth Center
12:27PM 32.0494 -102.0600 255° West 160 184 3,400 -480 Descending Fort Worth Center
12:28PM 32.0367 -102.1100 253° West 147 169 3,200 -240 Descending Fort Worth Center
12:30PM 32.0365 -102.1010 111° Southeast  Level Estimated
12:37PM 32.0333 -102.1000 257° West  Level FlightAware Approximate